首页
METAR-TAF:

METAR-TAF

机场 :

塞德港, 埃及

纬度: 31-16N, 经度: 032-18E, 海拔: 6米

当前天气观测

该预报发布于46分钟前的01:00 UTC
风速6节,风向
温度 22°C
湿度 78%
气压 1011 hPa
能见度10公里或以上
1500米以下无云,无积雨云

METAR: HEPS 170100Z 09006KT CAVOK 22/18 Q1011

时间: 03:46 (01:46 UTC)

预报

该预报发布于2小时和46分钟前的23:00 UTC
预报有效从17日的 00点(UTC)到 18日的 06点(UTC)
风速10节,风向东转东南
能见度10公里或以上
1500米以下无云,无积雨云
短暂存在
从 17日的 00点(UTC)到 17日的 06点(UTC)
风速3节,风向多变
能見度: 3000
轻雾,

TAF: HEPS 162300Z 1700/1806 11010KT CAVOK TEMPO 1700/1706 VRB03KT 3000 BR NSC

超过4000个机场的气象观测和天气预报(METAR&TAF报告)。

可查询的气象台以黄色和红色小点在地图上表示。

将鼠标移到小点上方,可查看气象台名称。

然后点击查看天气观测和预报。

如需切换地图:点击带黑十字的绿色按钮放大地图;点击带横线的绿色按钮缩小地图;或者点击绿色箭头查看邻近地区的地图。


METAR-TAF: